sensor_id;sensor_type;location;lat;lon;timestamp;P1;durP1;ratioP1;P2;durP2;ratioP2
1775;SDS011;885;42.626;23.200;2022-10-15T00:00:21;14.83;;;10.17;;
1775;SDS011;885;42.626;23.200;2022-10-15T00:02:48;10.63;;;7.83;;
1775;SDS011;885;42.626;23.200;2022-10-15T00:05:15;12.37;;;8.80;;
1775;SDS011;885;42.626;23.200;2022-10-15T00:07:43;12.03;;;9.30;;
1775;SDS011;885;42.626;23.200;2022-10-15T00:10:10;12.60;;;9.63;;
1775;SDS011;885;42.626;23.200;2022-10-15T00:12:37;12.27;;;9.93;;
1775;SDS011;885;42.626;23.200;2022-10-15T00:15:05;12.17;;;9.33;;
1775;SDS011;885;42.626;23.200;2022-10-15T00:17:32;12.23;;;9.57;;
1775;SDS011;885;42.626;23.200;2022-10-15T00:19:59;9.47;;;8.53;;
1775;SDS011;885;42.626;23.200;2022-10-15T00:22:27;11.80;;;10.60;;
1775;SDS011;885;42.626;23.200;2022-10-15T00:24:55;12.07;;;8.93;;
1775;SDS011;885;42.626;23.200;2022-10-15T00:27:22;11.00;;;9.43;;
1775;SDS011;885;42.626;23.200;2022-10-15T00:29:48;10.73;;;8.77;;
1775;SDS011;885;42.626;23.200;2022-10-15T00:32:15;11.07;;;9.30;;
1775;SDS011;885;42.626;23.200;2022-10-15T00:34:42;10.83;;;9.73;;
1775;SDS011;885;42.626;23.200;2022-10-15T00:37:09;9.27;;;8.30;;
1775;SDS011;885;42.626;23.200;2022-10-15T00:39:36;10.50;;;9.03;;
1775;SDS011;885;42.626;23.200;2022-10-15T00:42:04;9.77;;;8.53;;
1775;SDS011;885;42.626;23.200;2022-10-15T00:47:26;10.90;;;9.13;;
1775;SDS011;885;42.626;23.200;2022-10-15T00:49:59;11.77;;;9.37;;
1775;SDS011;885;42.626;23.200;2022-10-15T00:52:31;10.30;;;9.30;;
1775;SDS011;885;42.626;23.200;2022-10-15T00:55:05;10.20;;;9.20;;
1775;SDS011;885;42.626;23.200;2022-10-15T00:57:37;9.83;;;8.93;;
1775;SDS011;885;42.626;23.200;2022-10-15T01:00:06;10.60;;;9.37;;
1775;SDS011;885;42.626;23.200;2022-10-15T01:02:35;10.70;;;9.63;;
1775;SDS011;885;42.626;23.200;2022-10-15T01:05:02;11.80;;;9.30;;
1775;SDS011;885;42.626;23.200;2022-10-15T01:07:30;12.43;;;9.43;;
1775;SDS011;885;42.626;23.200;2022-10-15T01:09:57;11.47;;;9.60;;
1775;SDS011;885;42.626;23.200;2022-10-15T01:12:26;9.10;;;7.80;;
1775;SDS011;885;42.626;23.200;2022-10-15T01:15:04;12.50;;;10.30;;
1775;SDS011;885;42.626;23.200;2022-10-15T01:17:37;9.23;;;8.20;;
1775;SDS011;885;42.626;23.200;2022-10-15T01:23:18;8.60;;;6.83;;
1775;SDS011;885;42.626;23.200;2022-10-15T01:26:08;9.50;;;7.87;;
1775;SDS011;885;42.626;23.200;2022-10-15T01:29:00;11.57;;;9.10;;
1775;SDS011;885;42.626;23.200;2022-10-15T01:31:39;12.20;;;9.97;;
1775;SDS011;885;42.626;23.200;2022-10-15T01:34:11;11.47;;;9.60;;
1775;SDS011;885;42.626;23.200;2022-10-15T01:36:46;11.23;;;10.13;;
1775;SDS011;885;42.626;23.200;2022-10-15T01:39:18;9.90;;;8.87;;
1775;SDS011;885;42.626;23.200;2022-10-15T01:41:53;9.67;;;8.63;;
1775;SDS011;885;42.626;23.200;2022-10-15T01:44:26;11.17;;;9.53;;
1775;SDS011;885;42.626;23.200;2022-10-15T01:46:59;9.93;;;8.93;;
1775;SDS011;885;42.626;23.200;2022-10-15T01:49:30;10.40;;;9.30;;
1775;SDS011;885;42.626;23.200;2022-10-15T01:52:01;12.00;;;9.07;;
1775;SDS011;885;42.626;23.200;2022-10-15T01:54:30;12.00;;;9.27;;
1775;SDS011;885;42.626;23.200;2022-10-15T01:56:57;9.80;;;8.57;;
1775;SDS011;885;42.626;23.200;2022-10-15T01:59:26;9.37;;;8.37;;
1775;SDS011;885;42.626;23.200;2022-10-15T02:01:58;11.33;;;9.97;;
1775;SDS011;885;42.626;23.200;2022-10-15T02:04:25;13.10;;;9.70;;
1775;SDS011;885;42.626;23.200;2022-10-15T02:06:56;10.70;;;9.50;;
1775;SDS011;885;42.626;23.200;2022-10-15T02:09:31;12.30;;;10.10;;
1775;SDS011;885;42.626;23.200;2022-10-15T02:12:08;11.73;;;9.37;;
1775;SDS011;885;42.626;23.200;2022-10-15T02:14:43;10.73;;;9.63;;
1775;SDS011;885;42.626;23.200;2022-10-15T02:17:20;11.60;;;10.47;;
1775;SDS011;885;42.626;23.200;2022-10-15T02:19:56;11.80;;;10.17;;
1775;SDS011;885;42.626;23.200;2022-10-15T02:22:31;12.13;;;10.80;;
1775;SDS011;885;42.626;23.200;2022-10-15T02:25:03;12.17;;;9.90;;
1775;SDS011;885;42.626;23.200;2022-10-15T02:27:35;13.63;;;11.17;;
1775;SDS011;885;42.626;23.200;2022-10-15T02:30:04;11.27;;;10.00;;
1775;SDS011;885;42.626;23.200;2022-10-15T02:32:35;11.93;;;10.73;;
1775;SDS011;885;42.626;23.200;2022-10-15T02:35:04;12.50;;;10.17;;
1775;SDS011;885;42.626;23.200;2022-10-15T02:37:34;11.90;;;10.80;;
1775;SDS011;885;42.626;23.200;2022-10-15T02:40:02;10.50;;;9.50;;
1775;SDS011;885;42.626;23.200;2022-10-15T02:42:30;10.87;;;9.83;;
1775;SDS011;885;42.626;23.200;2022-10-15T02:44:57;10.57;;;9.57;;
1775;SDS011;885;42.626;23.200;2022-10-15T02:47:24;14.83;;;10.60;;
1775;SDS011;885;42.626;23.200;2022-10-15T02:49:52;12.80;;;11.50;;
1775;SDS011;885;42.626;23.200;2022-10-15T02:52:19;10.80;;;9.70;;
1775;SDS011;885;42.626;23.200;2022-10-15T02:54:46;11.57;;;10.30;;
1775;SDS011;885;42.626;23.200;2022-10-15T02:57:12;10.90;;;9.73;;
1775;SDS011;885;42.626;23.200;2022-10-15T02:59:39;10.50;;;9.50;;
1775;SDS011;885;42.626;23.200;2022-10-15T03:02:06;10.50;;;9.60;;
1775;SDS011;885;42.626;23.200;2022-10-15T03:04:33;12.17;;;9.77;;
1775;SDS011;885;42.626;23.200;2022-10-15T03:07:01;11.07;;;9.77;;
1775;SDS011;885;42.626;23.200;2022-10-15T03:09:28;11.33;;;10.00;;
1775;SDS011;885;42.626;23.200;2022-10-15T03:11:55;13.27;;;11.00;;
1775;SDS011;885;42.626;23.200;2022-10-15T03:14:22;10.73;;;9.73;;
1775;SDS011;885;42.626;23.200;2022-10-15T03:16:49;11.50;;;10.30;;
1775;SDS011;885;42.626;23.200;2022-10-15T03:19:15;11.57;;;10.47;;
1775;SDS011;885;42.626;23.200;2022-10-15T03:21:42;12.67;;;10.90;;
1775;SDS011;885;42.626;23.200;2022-10-15T03:24:11;12.60;;;11.30;;
1775;SDS011;885;42.626;23.200;2022-10-15T03:26:37;13.87;;;10.80;;
1775;SDS011;885;42.626;23.200;2022-10-15T03:29:04;14.87;;;11.37;;
1775;SDS011;885;42.626;23.200;2022-10-15T03:31:31;11.87;;;10.77;;
1775;SDS011;885;42.626;23.200;2022-10-15T03:33:58;12.87;;;11.33;;
1775;SDS011;885;42.626;23.200;2022-10-15T03:36:27;12.40;;;11.23;;
1775;SDS011;885;42.626;23.200;2022-10-15T03:38:53;14.10;;;12.50;;
1775;SDS011;885;42.626;23.200;2022-10-15T03:41:22;12.90;;;11.63;;
1775;SDS011;885;42.626;23.200;2022-10-15T03:43:49;14.00;;;12.50;;
1775;SDS011;885;42.626;23.200;2022-10-15T03:46:16;13.87;;;11.83;;
1775;SDS011;885;42.626;23.200;2022-10-15T03:48:42;13.40;;;12.00;;
1775;SDS011;885;42.626;23.200;2022-10-15T03:51:09;16.53;;;12.40;;
1775;SDS011;885;42.626;23.200;2022-10-15T03:53:36;13.23;;;11.93;;
1775;SDS011;885;42.626;23.200;2022-10-15T03:56:04;11.87;;;10.70;;
1775;SDS011;885;42.626;23.200;2022-10-15T03:58:33;12.20;;;11.07;;
1775;SDS011;885;42.626;23.200;2022-10-15T04:01:00;12.47;;;11.27;;
1775;SDS011;885;42.626;23.200;2022-10-15T04:03:27;11.33;;;10.17;;
1775;SDS011;885;42.626;23.200;2022-10-15T04:05:54;9.80;;;8.80;;
1775;SDS011;885;42.626;23.200;2022-10-15T04:08:22;11.33;;;9.57;;
1775;SDS011;885;42.626;23.200;2022-10-15T04:10:49;10.63;;;9.67;;
1775;SDS011;885;42.626;23.200;2022-10-15T04:13:16;12.33;;;10.47;;
1775;SDS011;885;42.626;23.200;2022-10-15T04:15:44;14.23;;;10.97;;
1775;SDS011;885;42.626;23.200;2022-10-15T04:18:11;12.30;;;10.87;;
1775;SDS011;885;42.626;23.200;2022-10-15T04:20:39;10.20;;;9.20;;
1775;SDS011;885;42.626;23.200;2022-10-15T04:23:06;16.33;;;11.07;;
1775;SDS011;885;42.626;23.200;2022-10-15T04:25:34;13.43;;;11.70;;
1775;SDS011;885;42.626;23.200;2022-10-15T04:28:01;12.93;;;11.10;;
1775;SDS011;885;42.626;23.200;2022-10-15T04:30:28;16.50;;;13.27;;
1775;SDS011;885;42.626;23.200;2022-10-15T04:32:57;15.90;;;12.97;;
1775;SDS011;885;42.626;23.200;2022-10-15T04:35:23;15.23;;;13.37;;
1775;SDS011;885;42.626;23.200;2022-10-15T04:37:50;13.40;;;12.10;;
1775;SDS011;885;42.626;23.200;2022-10-15T04:40:18;13.80;;;12.13;;
1775;SDS011;885;42.626;23.200;2022-10-15T04:42:45;15.00;;;12.07;;
1775;SDS011;885;42.626;23.200;2022-10-15T04:45:12;13.00;;;11.60;;
1775;SDS011;885;42.626;23.200;2022-10-15T04:47:38;14.17;;;12.67;;
1775;SDS011;885;42.626;23.200;2022-10-15T04:50:07;15.33;;;12.37;;
1775;SDS011;885;42.626;23.200;2022-10-15T04:52:34;14.93;;;13.43;;
1775;SDS011;885;42.626;23.200;2022-10-15T04:55:01;14.30;;;12.77;;
1775;SDS011;885;42.626;23.200;2022-10-15T04:57:29;16.00;;;13.67;;
1775;SDS011;885;42.626;23.200;2022-10-15T04:59:55;15.87;;;13.10;;
1775;SDS011;885;42.626;23.200;2022-10-15T05:02:22;18.97;;;13.43;;
1775;SDS011;885;42.626;23.200;2022-10-15T05:04:49;20.07;;;12.77;;
1775;SDS011;885;42.626;23.200;2022-10-15T05:07:20;14.20;;;12.80;;
1775;SDS011;885;42.626;23.200;2022-10-15T05:09:47;17.70;;;14.00;;
1775;SDS011;885;42.626;23.200;2022-10-15T05:12:14;14.77;;;12.93;;
1775;SDS011;885;42.626;23.200;2022-10-15T05:14:40;17.20;;;12.53;;
1775;SDS011;885;42.626;23.200;2022-10-15T05:17:07;15.33;;;13.73;;
1775;SDS011;885;42.626;23.200;2022-10-15T05:19:34;15.30;;;13.77;;
1775;SDS011;885;42.626;23.200;2022-10-15T05:22:01;14.87;;;13.27;;
1775;SDS011;885;42.626;23.200;2022-10-15T05:24:29;15.63;;;12.07;;
1775;SDS011;885;42.626;23.200;2022-10-15T05:26:56;14.70;;;12.73;;
1775;SDS011;885;42.626;23.200;2022-10-15T05:29:23;15.03;;;13.43;;
1775;SDS011;885;42.626;23.200;2022-10-15T05:31:52;16.37;;;13.00;;
1775;SDS011;885;42.626;23.200;2022-10-15T05:34:19;15.57;;;13.73;;
1775;SDS011;885;42.626;23.200;2022-10-15T05:36:46;14.83;;;12.50;;
1775;SDS011;885;42.626;23.200;2022-10-15T05:39:13;14.23;;;12.77;;
1775;SDS011;885;42.626;23.200;2022-10-15T05:41:41;14.67;;;13.13;;
1775;SDS011;885;42.626;23.200;2022-10-15T05:44:08;15.37;;;12.93;;
1775;SDS011;885;42.626;23.200;2022-10-15T05:46:35;16.00;;;13.00;;
1775;SDS011;885;42.626;23.200;2022-10-15T05:49:01;14.10;;;12.10;;
1775;SDS011;885;42.626;23.200;2022-10-15T05:51:31;14.80;;;11.97;;
1775;SDS011;885;42.626;23.200;2022-10-15T05:53:58;12.97;;;11.60;;
1775;SDS011;885;42.626;23.200;2022-10-15T05:56:25;18.37;;;10.23;;
1775;SDS011;885;42.626;23.200;2022-10-15T05:58:53;11.07;;;10.00;;
1775;SDS011;885;42.626;23.200;2022-10-15T06:01:20;11.13;;;9.37;;
1775;SDS011;885;42.626;23.200;2022-10-15T06:03:47;14.40;;;10.33;;
1775;SDS011;885;42.626;23.200;2022-10-15T06:06:15;14.20;;;10.00;;
1775;SDS011;885;42.626;23.200;2022-10-15T06:08:42;14.00;;;11.00;;
1775;SDS011;885;42.626;23.200;2022-10-15T06:11:09;12.43;;;10.70;;
1775;SDS011;885;42.626;23.200;2022-10-15T06:13:37;12.17;;;10.87;;
1775;SDS011;885;42.626;23.200;2022-10-15T06:16:06;11.93;;;10.37;;
1775;SDS011;885;42.626;23.200;2022-10-15T06:18:33;12.97;;;11.60;;
1775;SDS011;885;42.626;23.200;2022-10-15T06:21:01;10.53;;;9.43;;
1775;SDS011;885;42.626;23.200;2022-10-15T06:23:28;12.17;;;10.87;;
1775;SDS011;885;42.626;23.200;2022-10-15T06:25:54;12.80;;;11.07;;
1775;SDS011;885;42.626;23.200;2022-10-15T06:28:21;12.23;;;10.93;;
1775;SDS011;885;42.626;23.200;2022-10-15T06:30:48;12.73;;;11.43;;
1775;SDS011;885;42.626;23.200;2022-10-15T06:33:16;13.63;;;11.17;;
1775;SDS011;885;42.626;23.200;2022-10-15T06:35:43;12.57;;;11.50;;
1775;SDS011;885;42.626;23.200;2022-10-15T06:38:10;14.03;;;12.33;;
1775;SDS011;885;42.626;23.200;2022-10-15T06:40:37;15.03;;;10.40;;
1775;SDS011;885;42.626;23.200;2022-10-15T06:43:04;12.30;;;11.00;;
1775;SDS011;885;42.626;23.200;2022-10-15T06:45:32;16.07;;;12.00;;
1775;SDS011;885;42.626;23.200;2022-10-15T06:48:00;13.70;;;11.47;;
1775;SDS011;885;42.626;23.200;2022-10-15T06:50:30;17.50;;;11.67;;
1775;SDS011;885;42.626;23.200;2022-10-15T06:52:57;12.70;;;11.40;;
1775;SDS011;885;42.626;23.200;2022-10-15T06:55:24;13.50;;;12.10;;
1775;SDS011;885;42.626;23.200;2022-10-15T06:57:53;13.40;;;11.20;;
1775;SDS011;885;42.626;23.200;2022-10-15T07:00:20;12.23;;;11.00;;
1775;SDS011;885;42.626;23.200;2022-10-15T07:02:46;12.30;;;10.70;;
1775;SDS011;885;42.626;23.200;2022-10-15T07:05:13;13.20;;;12.00;;
1775;SDS011;885;42.626;23.200;2022-10-15T07:07:42;12.53;;;11.40;;
1775;SDS011;885;42.626;23.200;2022-10-15T07:10:08;11.63;;;10.37;;
1775;SDS011;885;42.626;23.200;2022-10-15T07:12:35;14.30;;;10.10;;
1775;SDS011;885;42.626;23.200;2022-10-15T07:15:05;11.27;;;10.17;;
1775;SDS011;885;42.626;23.200;2022-10-15T07:17:32;9.87;;;8.97;;
1775;SDS011;885;42.626;23.200;2022-10-15T07:20:00;11.47;;;9.47;;
1775;SDS011;885;42.626;23.200;2022-10-15T07:22:26;9.97;;;8.73;;
1775;SDS011;885;42.626;23.200;2022-10-15T07:24:55;8.60;;;7.80;;
1775;SDS011;885;42.626;23.200;2022-10-15T07:27:21;9.23;;;8.33;;
1775;SDS011;885;42.626;23.200;2022-10-15T07:29:48;9.33;;;7.60;;
1775;SDS011;885;42.626;23.200;2022-10-15T07:32:15;9.20;;;7.33;;
1775;SDS011;885;42.626;23.200;2022-10-15T07:34:42;8.47;;;6.83;;
1775;SDS011;885;42.626;23.200;2022-10-15T07:37:09;8.70;;;7.40;;
1775;SDS011;885;42.626;23.200;2022-10-15T07:39:36;8.70;;;7.63;;
1775;SDS011;885;42.626;23.200;2022-10-15T07:42:04;10.80;;;6.80;;
1775;SDS011;885;42.626;23.200;2022-10-15T07:44:31;7.97;;;6.83;;
1775;SDS011;885;42.626;23.200;2022-10-15T07:46:58;8.90;;;6.80;;
1775;SDS011;885;42.626;23.200;2022-10-15T07:49:25;7.83;;;7.03;;
1775;SDS011;885;42.626;23.200;2022-10-15T07:51:51;8.53;;;7.13;;
1775;SDS011;885;42.626;23.200;2022-10-15T07:54:18;7.60;;;6.90;;
1775;SDS011;885;42.626;23.200;2022-10-15T07:56:45;9.20;;;8.20;;
1775;SDS011;885;42.626;23.200;2022-10-15T07:59:13;9.10;;;6.80;;
1775;SDS011;885;42.626;23.200;2022-10-15T08:01:40;9.43;;;7.27;;
1775;SDS011;885;42.626;23.200;2022-10-15T08:04:07;9.10;;;7.23;;
1775;SDS011;885;42.626;23.200;2022-10-15T08:06:33;7.47;;;6.77;;
1775;SDS011;885;42.626;23.200;2022-10-15T08:09:02;8.83;;;7.10;;
1775;SDS011;885;42.626;23.200;2022-10-15T08:11:29;10.00;;;7.47;;
1775;SDS011;885;42.626;23.200;2022-10-15T08:13:56;11.10;;;7.03;;
1775;SDS011;885;42.626;23.200;2022-10-15T08:16:24;8.33;;;6.70;;
1775;SDS011;885;42.626;23.200;2022-10-15T08:18:51;7.40;;;6.20;;
1775;SDS011;885;42.626;23.200;2022-10-15T08:21:18;7.97;;;7.00;;
1775;SDS011;885;42.626;23.200;2022-10-15T08:23:45;9.80;;;6.53;;
1775;SDS011;885;42.626;23.200;2022-10-15T08:26:12;7.57;;;6.80;;
1775;SDS011;885;42.626;23.200;2022-10-15T08:28:38;7.27;;;6.27;;
1775;SDS011;885;42.626;23.200;2022-10-15T08:31:05;8.67;;;6.80;;
1775;SDS011;885;42.626;23.200;2022-10-15T08:33:34;7.93;;;7.13;;
1775;SDS011;885;42.626;23.200;2022-10-15T08:36:03;9.13;;;5.90;;
1775;SDS011;885;42.626;23.200;2022-10-15T08:38:30;7.03;;;5.57;;
1775;SDS011;885;42.626;23.200;2022-10-15T08:40:58;8.07;;;6.87;;
1775;SDS011;885;42.626;23.200;2022-10-15T08:43:28;7.80;;;5.93;;
1775;SDS011;885;42.626;23.200;2022-10-15T08:46:00;7.70;;;6.20;;
1775;SDS011;885;42.626;23.200;2022-10-15T08:48:31;7.73;;;6.30;;
1775;SDS011;885;42.626;23.200;2022-10-15T08:51:02;9.30;;;5.93;;
1775;SDS011;885;42.626;23.200;2022-10-15T08:53:32;7.57;;;5.80;;
1775;SDS011;885;42.626;23.200;2022-10-15T08:56:07;7.00;;;6.30;;
1775;SDS011;885;42.626;23.200;2022-10-15T08:58:42;6.80;;;6.10;;
1775;SDS011;885;42.626;23.200;2022-10-15T09:01:17;7.53;;;6.07;;
1775;SDS011;885;42.626;23.200;2022-10-15T09:03:51;7.83;;;6.63;;
1775;SDS011;885;42.626;23.200;2022-10-15T09:06:29;7.27;;;6.57;;
1775;SDS011;885;42.626;23.200;2022-10-15T09:09:01;7.07;;;6.27;;
1775;SDS011;885;42.626;23.200;2022-10-15T09:11:39;6.60;;;6.00;;
1775;SDS011;885;42.626;23.200;2022-10-15T09:14:15;6.73;;;5.00;;
1775;SDS011;885;42.626;23.200;2022-10-15T09:16:45;6.60;;;5.90;;
1775;SDS011;885;42.626;23.200;2022-10-15T09:19:15;6.20;;;5.60;;
1775;SDS011;885;42.626;23.200;2022-10-15T09:21:45;5.60;;;4.93;;
1775;SDS011;885;42.626;23.200;2022-10-15T09:24:15;5.90;;;5.30;;
1775;SDS011;885;42.626;23.200;2022-10-15T09:26:48;6.80;;;5.50;;
1775;SDS011;885;42.626;23.200;2022-10-15T09:29:23;5.83;;;5.30;;
1775;SDS011;885;42.626;23.200;2022-10-15T09:31:57;8.23;;;5.13;;
1775;SDS011;885;42.626;23.200;2022-10-15T09:34:34;7.40;;;5.27;;
1775;SDS011;885;42.626;23.200;2022-10-15T09:37:09;8.80;;;5.20;;
1775;SDS011;885;42.626;23.200;2022-10-15T09:39:45;5.37;;;4.87;;
1775;SDS011;885;42.626;23.200;2022-10-15T09:42:25;8.10;;;5.20;;
1775;SDS011;885;42.626;23.200;2022-10-15T09:44:56;7.00;;;5.23;;
1775;SDS011;885;42.626;23.200;2022-10-15T09:47:26;6.47;;;5.80;;
1775;SDS011;885;42.626;23.200;2022-10-15T09:49:55;7.50;;;6.17;;
1775;SDS011;885;42.626;23.200;2022-10-15T09:52:25;6.00;;;5.50;;
1775;SDS011;885;42.626;23.200;2022-10-15T09:55:07;5.50;;;5.00;;
1775;SDS011;885;42.626;23.200;2022-10-15T09:57:41;5.57;;;5.00;;
1775;SDS011;885;42.626;23.200;2022-10-15T10:00:12;5.13;;;4.63;;
1775;SDS011;885;42.626;23.200;2022-10-15T10:02:39;4.93;;;4.47;;
1775;SDS011;885;42.626;23.200;2022-10-15T10:05:23;5.37;;;4.83;;
1775;SDS011;885;42.626;23.200;2022-10-15T10:08:07;5.77;;;5.17;;
1775;SDS011;885;42.626;23.200;2022-10-15T10:10:36;5.47;;;4.77;;
1775;SDS011;885;42.626;23.200;2022-10-15T10:13:04;7.17;;;5.63;;
1775;SDS011;885;42.626;23.200;2022-10-15T10:15:49;6.07;;;5.47;;
1775;SDS011;885;42.626;23.200;2022-10-15T10:18:18;8.07;;;5.00;;
1775;SDS011;885;42.626;23.200;2022-10-15T10:20:54;5.93;;;5.30;;
1775;SDS011;885;42.626;23.200;2022-10-15T10:23:24;6.60;;;4.87;;
1775;SDS011;885;42.626;23.200;2022-10-15T10:25:56;5.77;;;5.17;;
1775;SDS011;885;42.626;23.200;2022-10-15T10:28:26;6.10;;;5.50;;
1775;SDS011;885;42.626;23.200;2022-10-15T10:31:02;5.70;;;5.20;;
1775;SDS011;885;42.626;23.200;2022-10-15T10:33:34;5.80;;;5.00;;
1775;SDS011;885;42.626;23.200;2022-10-15T10:36:03;5.90;;;4.93;;
1775;SDS011;885;42.626;23.200;2022-10-15T10:38:33;6.70;;;5.20;;
1775;SDS011;885;42.626;23.200;2022-10-15T10:41:02;7.20;;;5.20;;
1775;SDS011;885;42.626;23.200;2022-10-15T10:43:32;5.40;;;4.80;;
1775;SDS011;885;42.626;23.200;2022-10-15T10:46:01;6.03;;;5.43;;
1775;SDS011;885;42.626;23.200;2022-10-15T10:48:36;5.30;;;4.80;;
1775;SDS011;885;42.626;23.200;2022-10-15T10:51:06;6.77;;;5.90;;
1775;SDS011;885;42.626;23.200;2022-10-15T10:53:38;5.70;;;5.10;;
1775;SDS011;885;42.626;23.200;2022-10-15T10:56:13;6.20;;;4.70;;
1775;SDS011;885;42.626;23.200;2022-10-15T10:58:41;5.97;;;4.90;;
1775;SDS011;885;42.626;23.200;2022-10-15T11:01:11;5.97;;;4.90;;
1775;SDS011;885;42.626;23.200;2022-10-15T11:03:40;5.70;;;5.20;;
1775;SDS011;885;42.626;23.200;2022-10-15T11:06:22;7.63;;;5.43;;
1775;SDS011;885;42.626;23.200;2022-10-15T11:09:05;7.37;;;5.97;;
1775;SDS011;885;42.626;23.200;2022-10-15T11:11:42;6.37;;;4.70;;
1775;SDS011;885;42.626;23.200;2022-10-15T11:14:19;6.13;;;5.53;;
1775;SDS011;885;42.626;23.200;2022-10-15T11:16:55;6.30;;;5.40;;
1775;SDS011;885;42.626;23.200;2022-10-15T11:19:30;5.80;;;5.20;;
1775;SDS011;885;42.626;23.200;2022-10-15T11:22:09;4.87;;;4.40;;
1775;SDS011;885;42.626;23.200;2022-10-15T11:24:52;5.00;;;4.30;;
1775;SDS011;885;42.626;23.200;2022-10-15T11:27:33;6.63;;;4.93;;
1775;SDS011;885;42.626;23.200;2022-10-15T11:30:21;7.63;;;5.63;;
1775;SDS011;885;42.626;23.200;2022-10-15T11:33:08;5.63;;;5.07;;
1775;SDS011;885;42.626;23.200;2022-10-15T11:35:45;6.97;;;5.60;;
1775;SDS011;885;42.626;23.200;2022-10-15T11:38:19;4.70;;;4.30;;
1775;SDS011;885;42.626;23.200;2022-10-15T11:41:02;5.57;;;4.93;;
1775;SDS011;885;42.626;23.200;2022-10-15T11:43:42;5.80;;;5.07;;
1775;SDS011;885;42.626;23.200;2022-10-15T11:46:25;6.20;;;4.80;;
1775;SDS011;885;42.626;23.200;2022-10-15T11:48:58;5.07;;;4.57;;
1775;SDS011;885;42.626;23.200;2022-10-15T11:51:38;8.27;;;5.00;;
1775;SDS011;885;42.626;23.200;2022-10-15T11:54:24;5.73;;;5.13;;
1775;SDS011;885;42.626;23.200;2022-10-15T11:56:58;5.10;;;4.60;;
1775;SDS011;885;42.626;23.200;2022-10-15T11:59:29;9.47;;;4.90;;
1775;SDS011;885;42.626;23.200;2022-10-15T12:02:02;9.93;;;4.70;;
1775;SDS011;885;42.626;23.200;2022-10-15T12:04:36;6.00;;;4.43;;
1775;SDS011;885;42.626;23.200;2022-10-15T12:07:10;9.10;;;4.90;;
1775;SDS011;885;42.626;23.200;2022-10-15T12:09:42;5.10;;;4.57;;
1775;SDS011;885;42.626;23.200;2022-10-15T12:12:20;9.07;;;7.97;;
1775;SDS011;885;42.626;23.200;2022-10-15T12:15:01;7.33;;;6.43;;
1775;SDS011;885;42.626;23.200;2022-10-15T12:17:47;6.47;;;4.60;;
1775;SDS011;885;42.626;23.200;2022-10-15T12:20:18;6.10;;;5.37;;
1775;SDS011;885;42.626;23.200;2022-10-15T12:22:53;5.00;;;4.50;;
1775;SDS011;885;42.626;23.200;2022-10-15T12:25:39;7.40;;;4.83;;
1775;SDS011;885;42.626;23.200;2022-10-15T12:28:13;5.17;;;4.37;;
1775;SDS011;885;42.626;23.200;2022-10-15T12:30:58;4.93;;;4.30;;
1775;SDS011;885;42.626;23.200;2022-10-15T12:33:34;5.57;;;4.57;;
1775;SDS011;885;42.626;23.200;2022-10-15T12:36:04;6.03;;;5.43;;
1775;SDS011;885;42.626;23.200;2022-10-15T12:38:35;4.90;;;4.37;;
1775;SDS011;885;42.626;23.200;2022-10-15T12:41:06;6.03;;;4.77;;
1775;SDS011;885;42.626;23.200;2022-10-15T12:43:37;5.30;;;4.33;;
1775;SDS011;885;42.626;23.200;2022-10-15T12:46:07;6.83;;;4.67;;
1775;SDS011;885;42.626;23.200;2022-10-15T12:48:36;5.57;;;4.40;;
1775;SDS011;885;42.626;23.200;2022-10-15T12:53:59;5.30;;;3.63;;
1775;SDS011;885;42.626;23.200;2022-10-15T12:56:36;5.50;;;4.10;;
1775;SDS011;885;42.626;23.200;2022-10-15T13:05:00;5.13;;;3.70;;
1775;SDS011;885;42.626;23.200;2022-10-15T13:07:28;4.73;;;3.33;;
1775;SDS011;885;42.626;23.200;2022-10-15T13:09:57;3.60;;;3.30;;
1775;SDS011;885;42.626;23.200;2022-10-15T13:12:25;4.40;;;4.00;;
1775;SDS011;885;42.626;23.200;2022-10-15T13:14:56;4.93;;;3.30;;
1775;SDS011;885;42.626;23.200;2022-10-15T13:17:27;3.90;;;3.33;;
1775;SDS011;885;42.626;23.200;2022-10-15T13:19:58;3.73;;;3.40;;
1775;SDS011;885;42.626;23.200;2022-10-15T13:22:29;4.93;;;3.70;;
1775;SDS011;885;42.626;23.200;2022-10-15T13:24:57;4.37;;;3.97;;
1775;SDS011;885;42.626;23.200;2022-10-15T13:27:24;4.73;;;3.60;;
1775;SDS011;885;42.626;23.200;2022-10-15T13:29:55;4.63;;;4.00;;
1775;SDS011;885;42.626;23.200;2022-10-15T13:32:24;4.17;;;3.80;;
1775;SDS011;885;42.626;23.200;2022-10-15T13:34:52;5.63;;;3.70;;
1775;SDS011;885;42.626;23.200;2022-10-15T13:37:25;3.57;;;3.27;;
1775;SDS011;885;42.626;23.200;2022-10-15T13:39:56;3.50;;;3.20;;
1775;SDS011;885;42.626;23.200;2022-10-15T13:42:24;4.70;;;4.03;;
1775;SDS011;885;42.626;23.200;2022-10-15T13:44:55;4.60;;;3.97;;
1775;SDS011;885;42.626;23.200;2022-10-15T13:47:26;4.10;;;3.70;;
1775;SDS011;885;42.626;23.200;2022-10-15T13:50:10;4.40;;;3.53;;
1775;SDS011;885;42.626;23.200;2022-10-15T13:52:40;4.10;;;3.73;;
1775;SDS011;885;42.626;23.200;2022-10-15T13:55:12;4.90;;;3.53;;
1775;SDS011;885;42.626;23.200;2022-10-15T13:57:44;3.63;;;3.33;;
1775;SDS011;885;42.626;23.200;2022-10-15T14:00:19;6.13;;;4.10;;
1775;SDS011;885;42.626;23.200;2022-10-15T14:05:41;3.83;;;3.50;;
1775;SDS011;885;42.626;23.200;2022-10-15T14:08:20;4.63;;;3.60;;
1775;SDS011;885;42.626;23.200;2022-10-15T14:10:50;4.70;;;3.90;;
1775;SDS011;885;42.626;23.200;2022-10-15T14:13:18;4.53;;;4.10;;
1775;SDS011;885;42.626;23.200;2022-10-15T14:15:50;3.73;;;3.43;;
1775;SDS011;885;42.626;23.200;2022-10-15T14:18:32;4.77;;;4.17;;
1775;SDS011;885;42.626;23.200;2022-10-15T14:21:01;4.03;;;3.67;;
1775;SDS011;885;42.626;23.200;2022-10-15T14:23:31;3.20;;;2.90;;
1775;SDS011;885;42.626;23.200;2022-10-15T14:25:58;3.47;;;3.17;;
1775;SDS011;885;42.626;23.200;2022-10-15T14:28:27;5.27;;;3.77;;
1775;SDS011;885;42.626;23.200;2022-10-15T14:30:56;3.13;;;2.90;;
1775;SDS011;885;42.626;23.200;2022-10-15T14:33:38;3.80;;;3.23;;
1775;SDS011;885;42.626;23.200;2022-10-15T14:36:10;5.60;;;3.80;;
1775;SDS011;885;42.626;23.200;2022-10-15T14:38:40;3.70;;;3.30;;
1775;SDS011;885;42.626;23.200;2022-10-15T14:41:19;5.10;;;3.63;;
1775;SDS011;885;42.626;23.200;2022-10-15T14:43:58;3.57;;;3.27;;
1775;SDS011;885;42.626;23.200;2022-10-15T14:46:30;3.87;;;3.57;;
1775;SDS011;885;42.626;23.200;2022-10-15T14:49:11;8.23;;;4.00;;
1775;SDS011;885;42.626;23.200;2022-10-15T14:51:42;4.30;;;3.90;;
1775;SDS011;885;42.626;23.200;2022-10-15T14:54:12;4.20;;;3.43;;
1775;SDS011;885;42.626;23.200;2022-10-15T14:56:47;8.33;;;4.00;;
1775;SDS011;885;42.626;23.200;2022-10-15T14:59:15;6.30;;;3.90;;
1775;SDS011;885;42.626;23.200;2022-10-15T15:01:51;4.30;;;3.50;;
1775;SDS011;885;42.626;23.200;2022-10-15T15:07:19;3.60;;;3.30;;
1775;SDS011;885;42.626;23.200;2022-10-15T15:09:49;6.00;;;5.30;;
1775;SDS011;885;42.626;23.200;2022-10-15T15:12:20;6.00;;;4.40;;
1775;SDS011;885;42.626;23.200;2022-10-15T15:14:50;4.73;;;4.33;;
1775;SDS011;885;42.626;23.200;2022-10-15T15:17:18;5.87;;;5.10;;
1775;SDS011;885;42.626;23.200;2022-10-15T15:19:50;5.20;;;4.07;;
1775;SDS011;885;42.626;23.200;2022-10-15T15:22:22;4.40;;;3.50;;
1775;SDS011;885;42.626;23.200;2022-10-15T15:24:55;4.40;;;3.20;;
1775;SDS011;885;42.626;23.200;2022-10-15T15:27:24;4.80;;;4.07;;
1775;SDS011;885;42.626;23.200;2022-10-15T15:29:52;4.37;;;3.97;;
1775;SDS011;885;42.626;23.200;2022-10-15T15:32:20;6.40;;;4.30;;
1775;SDS011;885;42.626;23.200;2022-10-15T15:34:48;4.80;;;4.27;;
1775;SDS011;885;42.626;23.200;2022-10-15T15:37:16;5.63;;;5.20;;
1775;SDS011;885;42.626;23.200;2022-10-15T15:39:45;4.03;;;3.13;;
1775;SDS011;885;42.626;23.200;2022-10-15T15:42:14;4.50;;;4.10;;
1775;SDS011;885;42.626;23.200;2022-10-15T15:44:43;4.53;;;3.93;;